RUNWAY INFORMATION
Runway Length Width Elevation Displaced
Threshold
Heading | Runway Length Width Elevation Displaced
Threshold
Heading
03 12000 ft 150 ft 20 ft 0 ft 31 | 21 12000 ft 150 ft 72 ft 0 ft 211

 AIRPORT FREQUENCIES
Type APP Name RADAR Frequency 121.3 MHZ
Type ATIS Name ATIS Frequency 126.8 MHZ
Type GND Name GND Frequency 121.9 MHZ
Type TWR Name TWR Frequency 118.7 MHZ

 AIRPORT NEAR NAVIGATION AIDS
Type NDB Name Brunei Frequency 318 KHZ
Type VOR-DME Name Brunei Frequency 112000 KHZ

 METAR AND TAF INFORMATION
METAR FOR WBSB
ADDS - METARS form results

(0428 UTC 23 April 2021)
Data provider http://aviationweather.gov/metar/data/
 
METAR text: WBSB 230400Z 21007KT 9000 SCT016 BKN300 32/24 Q1010 NOSIG
Conditions at: WBSB (BRUNEI INTL AIRP, MY) observed 0400 UTC 23 April 2021
Temperature: 32.0°C (90°F)
Dewpoint: 24.0°C (75°F) [RH = 63%]
Pressure (altimeter): 29.82 inches Hg (1010.0 mb)
Winds: from the SSW (210 degrees) at 8 MPH (7 knots; 3.6 m/s)
Visibility: 6 miles ( 9 km)
Ceiling: 30000 feet AGL
Clouds: scattered clouds at 1600 feet AGL
broken clouds at 30000 feet AGL
Weather: no significant weather observed at this time

METAR text: WBSB 230330Z 21008KT 9000 SCT016 BKN300 32/24 Q1010 NOSIG
Conditions at: WBSB (BRUNEI INTL AIRP, MY) observed 0330 UTC 23 April 2021
Temperature: 32.0°C (90°F)
Dewpoint: 24.0°C (75°F) [RH = 63%]
Pressure (altimeter): 29.82 inches Hg (1010.0 mb)
Winds: from the SSW (210 degrees) at 9 MPH (8 knots; 4.1 m/s)
Visibility: 6 miles ( 9 km)
Ceiling: 30000 feet AGL
Clouds: scattered clouds at 1600 feet AGL
broken clouds at 30000 feet AGL
Weather: no significant weather observed at this time

Forecast for: WBSB (BRUNEI INTL AIRP, MY)
Text: TAF WBSB 222300Z 2300/2406 20004KT 9999 FEW015 FEW016CB
Forecast period: 0000 to 0500 UTC 23 April 2021
Forecast type: FROM: standard forecast or significant change
Winds: from the SSW (200 degrees) at 5 MPH (4 knots; 2.1 m/s)
Visibility: 6 or more miles (10+ km)
Ceiling: at least 12,000 feet AGL
Clouds: few clouds at 1500 feet AGL
few clouds at 1600 feet AGL
Weather: no significant weather forecast for this period
Text: BECMG 2305/2307 30008KT FEW016 FEW017CB
Forecast period: 0500 UTC 23 April 2021 to 0600 UTC 24 April 2021
Forecast type: BECOMING: Conditions expected to become as follows by 0700 UTC 23 April 2021
Winds: from the WNW (300 degrees) at 9 MPH (8 knots; 4.1 m/s)
Visibility: 6 or more miles (10+ km)
Ceiling: at least 12,000 feet AGL
Clouds: few clouds at 1600 feet AGL
few clouds at 1700 feet AGL
Weather: no significant weather forecast for this period



© 2013 - 2021, FlightSimLog.org - Powered by Virtual Airlines Manager